Terminal Aerodrome Forecast
Issued by NWS

Home | Current Version | Previous Version | Text Only | Print | Product List | Glossary On
Versions: 1 2 3 4 5 6 7 8 9 10 11 12 13 14 15 16 17 18 19 20 21 22 23 24 25 26 27 28
000
FTUS43 KLSX 220500
TAFUIN
TAF
KUIN 220525Z 2206/2306 15010KT P6SM OVC040
     FM221300 14012KT 3SM -RA BR SCT008 OVC015
     FM221800 12012KT 3SM -RA BR OVC008
     FM230000 16012KT P6SM SCT008 OVC015=

USA.gov is the U.S. government's official web portal to all federal, state and local government web resources and services.